sensor_id;sensor_type;location;lat;lon;timestamp;pressure;altitude;pressure_sealevel;temperature;humidity
59272;BME280;45043;51.068;7.026;2023-03-24T00:00:22;99061.38;;;9.03;64.46
59272;BME280;45043;51.068;7.026;2023-03-24T00:03:23;99065.63;;;9.04;64.38
59272;BME280;45043;51.068;7.026;2023-03-24T00:06:25;99050.09;;;9.08;63.98
59272;BME280;45043;51.068;7.026;2023-03-24T00:09:27;99048.25;;;9.08;64.09
59272;BME280;45043;51.068;7.026;2023-03-24T00:12:30;99036.66;;;9.09;63.99
59272;BME280;45043;51.068;7.026;2023-03-24T00:15:31;99040.91;;;9.10;64.15
59272;BME280;45043;51.068;7.026;2023-03-24T00:18:37;99041.84;;;9.16;64.12
59272;BME280;45043;51.068;7.026;2023-03-24T00:21:42;99037.34;;;9.16;64.04
59272;BME280;45043;51.068;7.026;2023-03-24T00:24:43;99035.75;;;9.15;64.31
59272;BME280;45043;51.068;7.026;2023-03-24T00:27:46;99027.59;;;9.17;64.19
59272;BME280;45043;51.068;7.026;2023-03-24T00:30:48;99024.25;;;9.21;63.88
59272;BME280;45043;51.068;7.026;2023-03-24T00:33:53;99001.47;;;9.20;64.22
59272;BME280;45043;51.068;7.026;2023-03-24T00:36:53;99000.06;;;9.18;64.21
59272;BME280;45043;51.068;7.026;2023-03-24T00:39:54;98992.53;;;9.15;64.20
59272;BME280;45043;51.068;7.026;2023-03-24T00:42:55;98989.53;;;9.11;64.32
59272;BME280;45043;51.068;7.026;2023-03-24T00:46:00;98981.94;;;9.15;64.26
59272;BME280;45043;51.068;7.026;2023-03-24T00:49:06;98977.91;;;9.12;64.29
59272;BME280;45043;51.068;7.026;2023-03-24T00:52:25;98993.28;;;9.03;64.33
59272;BME280;45043;51.068;7.026;2023-03-24T00:55:33;98981.28;;;9.01;64.55
59272;BME280;45043;51.068;7.026;2023-03-24T00:58:37;98973.94;;;9.03;64.59
59272;BME280;45043;51.068;7.026;2023-03-24T01:01:39;98962.91;;;9.06;64.79
59272;BME280;45043;51.068;7.026;2023-03-24T01:04:41;98964.41;;;9.02;64.99
59272;BME280;45043;51.068;7.026;2023-03-24T01:07:46;98956.88;;;8.99;65.02
59272;BME280;45043;51.068;7.026;2023-03-24T01:10:51;98953.44;;;8.98;65.02
59272;BME280;45043;51.068;7.026;2023-03-24T01:13:53;98952.03;;;8.96;65.26
59272;BME280;45043;51.068;7.026;2023-03-24T01:16:53;98954.91;;;8.94;65.35
59272;BME280;45043;51.068;7.026;2023-03-24T01:19:54;98961.22;;;8.93;65.36
59272;BME280;45043;51.068;7.026;2023-03-24T01:22:55;98949.25;;;8.91;65.45
59272;BME280;45043;51.068;7.026;2023-03-24T01:25:55;98962.63;;;8.96;65.63
59272;BME280;45043;51.068;7.026;2023-03-24T01:28:56;98943.66;;;8.99;65.46
59272;BME280;45043;51.068;7.026;2023-03-24T01:31:57;98953.63;;;8.97;65.48
59272;BME280;45043;51.068;7.026;2023-03-24T01:34:57;98942.59;;;9.00;65.53
59272;BME280;45043;51.068;7.026;2023-03-24T01:37:58;98952.53;;;9.04;65.33
59272;BME280;45043;51.068;7.026;2023-03-24T01:40:59;98941.72;;;9.06;65.28
59272;BME280;45043;51.068;7.026;2023-03-24T01:43:59;98932.84;;;9.12;65.04
59272;BME280;45043;51.068;7.026;2023-03-24T01:47:01;98928.28;;;9.19;64.73
59272;BME280;45043;51.068;7.026;2023-03-24T01:50:02;98927.84;;;9.22;64.71
59272;BME280;45043;51.068;7.026;2023-03-24T01:53:04;98920.25;;;9.26;64.59
59272;BME280;45043;51.068;7.026;2023-03-24T01:56:06;98908.84;;;9.25;64.76
59272;BME280;45043;51.068;7.026;2023-03-24T01:59:19;98892.50;;;9.28;64.48
59272;BME280;45043;51.068;7.026;2023-03-24T02:02:30;98879.25;;;9.28;64.63
59272;BME280;45043;51.068;7.026;2023-03-24T02:05:37;98885.72;;;9.33;64.72
59272;BME280;45043;51.068;7.026;2023-03-24T02:08:49;98866.69;;;9.36;64.49
59272;BME280;45043;51.068;7.026;2023-03-24T02:11:51;98857.13;;;9.35;64.63
59272;BME280;45043;51.068;7.026;2023-03-24T02:14:52;98850.81;;;9.36;64.60
59272;BME280;45043;51.068;7.026;2023-03-24T02:27:47;98832.25;;;9.47;63.97
59272;BME280;45043;51.068;7.026;2023-03-24T02:41:00;98818.59;;;9.50;63.45
59272;BME280;45043;51.068;7.026;2023-03-24T02:44:21;98801.97;;;9.55;63.49
59272;BME280;45043;51.068;7.026;2023-03-24T02:47:42;98786.19;;;9.60;63.28
59272;BME280;45043;51.068;7.026;2023-03-24T02:51:12;98794.13;;;9.60;63.26
59272;BME280;45043;51.068;7.026;2023-03-24T02:57:42;98813.75;;;9.59;62.98
59272;BME280;45043;51.068;7.026;2023-03-24T03:01:17;98810.28;;;9.70;62.84
59272;BME280;45043;51.068;7.026;2023-03-24T03:04:58;98817.09;;;9.66;62.64
59272;BME280;45043;51.068;7.026;2023-03-24T03:08:05;98810.28;;;9.70;62.78
59272;BME280;45043;51.068;7.026;2023-03-24T03:11:11;98801.97;;;9.79;62.87
59272;BME280;45043;51.068;7.026;2023-03-24T03:14:17;98813.38;;;9.79;62.70
59272;BME280;45043;51.068;7.026;2023-03-24T03:17:30;98810.97;;;9.77;62.62
59272;BME280;45043;51.068;7.026;2023-03-24T03:20:38;98810.38;;;9.75;62.76
59272;BME280;45043;51.068;7.026;2023-03-24T03:24:00;98809.81;;;9.73;62.62
59272;BME280;45043;51.068;7.026;2023-03-24T03:27:45;98807.72;;;9.75;62.56
59272;BME280;45043;51.068;7.026;2023-03-24T03:30:43;98808.31;;;9.77;62.92
59272;BME280;45043;51.068;7.026;2023-03-24T03:33:54;98804.84;;;9.77;62.98
59272;BME280;45043;51.068;7.026;2023-03-24T03:37:10;98798.75;;;9.76;63.00
59272;BME280;45043;51.068;7.026;2023-03-24T03:40:26;98800.94;;;9.80;62.84
59272;BME280;45043;51.068;7.026;2023-03-24T03:43:37;98803.59;;;9.80;63.23
59272;BME280;45043;51.068;7.026;2023-03-24T03:46:41;98796.19;;;9.82;62.76
59272;BME280;45043;51.068;7.026;2023-03-24T03:49:46;98794.13;;;9.84;62.88
59272;BME280;45043;51.068;7.026;2023-03-24T03:52:47;98798.84;;;9.82;63.06
59272;BME280;45043;51.068;7.026;2023-03-24T03:55:48;98797.34;;;9.86;62.92
59272;BME280;45043;51.068;7.026;2023-03-24T03:58:49;98798.16;;;9.86;63.00
59272;BME280;45043;51.068;7.026;2023-03-24T04:01:50;98807.75;;;9.87;63.08
59272;BME280;45043;51.068;7.026;2023-03-24T04:20:09;98811.75;;;9.90;62.81
59272;BME280;45043;51.068;7.026;2023-03-24T04:30:15;98814.41;;;9.90;63.18
59272;BME280;45043;51.068;7.026;2023-03-24T04:33:47;98833.78;;;9.90;63.14
59272;BME280;45043;51.068;7.026;2023-03-24T04:36:52;98831.47;;;9.94;62.89
59272;BME280;45043;51.068;7.026;2023-03-24T04:40:14;98836.31;;;9.97;63.37
59272;BME280;45043;51.068;7.026;2023-03-24T04:43:19;98841.16;;;10.00;63.20
59272;BME280;45043;51.068;7.026;2023-03-24T04:46:21;98857.53;;;9.97;62.97
59272;BME280;45043;51.068;7.026;2023-03-24T04:49:28;98891.81;;;9.98;63.22
59272;BME280;45043;51.068;7.026;2023-03-24T04:52:30;98879.91;;;10.01;63.36
59272;BME280;45043;51.068;7.026;2023-03-24T04:58:40;98878.88;;;9.79;63.48
59272;BME280;45043;51.068;7.026;2023-03-24T05:01:41;98895.47;;;9.86;62.94
59272;BME280;45043;51.068;7.026;2023-03-24T05:05:12;98929.25;;;9.79;62.86
59272;BME280;45043;51.068;7.026;2023-03-24T05:08:19;98971.91;;;9.65;63.14
59272;BME280;45043;51.068;7.026;2023-03-24T05:11:20;98928.34;;;9.61;63.60
59272;BME280;45043;51.068;7.026;2023-03-24T05:14:31;98948.34;;;9.57;63.72
59272;BME280;45043;51.068;7.026;2023-03-24T05:17:32;98943.28;;;9.56;63.62
59272;BME280;45043;51.068;7.026;2023-03-24T05:20:32;98950.44;;;9.55;63.94
59272;BME280;45043;51.068;7.026;2023-03-24T05:23:43;98946.38;;;9.52;63.49
59272;BME280;45043;51.068;7.026;2023-03-24T05:26:43;98962.75;;;9.49;63.40
59272;BME280;45043;51.068;7.026;2023-03-24T05:30:05;98981.50;;;9.48;63.06
59272;BME280;45043;51.068;7.026;2023-03-24T05:33:08;98990.50;;;9.47;63.08
59272;BME280;45043;51.068;7.026;2023-03-24T05:36:09;99012.94;;;9.44;62.82
59272;BME280;45043;51.068;7.026;2023-03-24T05:39:10;99012.91;;;9.33;62.63
59272;BME280;45043;51.068;7.026;2023-03-24T05:42:20;99008.41;;;9.51;62.68
59272;BME280;45043;51.068;7.026;2023-03-24T05:45:22;99031.63;;;9.68;61.73
59272;BME280;45043;51.068;7.026;2023-03-24T05:48:25;99029.22;;;9.78;60.85
59272;BME280;45043;51.068;7.026;2023-03-24T05:51:40;99028.44;;;9.77;60.43
59272;BME280;45043;51.068;7.026;2023-03-24T05:54:41;99030.31;;;9.89;60.10
59272;BME280;45043;51.068;7.026;2023-03-24T05:57:50;99039.53;;;9.98;59.50
59272;BME280;45043;51.068;7.026;2023-03-24T06:01:10;99012.56;;;10.01;59.16
59272;BME280;45043;51.068;7.026;2023-03-24T06:04:12;99041.09;;;10.06;59.23
59272;BME280;45043;51.068;7.026;2023-03-24T06:07:13;99041.66;;;10.08;58.78
59272;BME280;45043;51.068;7.026;2023-03-24T06:10:16;99055.72;;;10.08;58.49
59272;BME280;45043;51.068;7.026;2023-03-24T06:13:22;99058.09;;;9.98;58.28
59272;BME280;45043;51.068;7.026;2023-03-24T06:16:25;99060.75;;;9.98;57.28
59272;BME280;45043;51.068;7.026;2023-03-24T06:19:35;99091.63;;;9.81;57.58
59272;BME280;45043;51.068;7.026;2023-03-24T06:22:47;99053.16;;;9.60;57.22
59272;BME280;45043;51.068;7.026;2023-03-24T06:25:53;99099.63;;;9.44;57.35
59272;BME280;45043;51.068;7.026;2023-03-24T06:28:57;99084.97;;;9.23;57.06
59272;BME280;45043;51.068;7.026;2023-03-24T06:32:00;99089.53;;;9.16;56.88
59272;BME280;45043;51.068;7.026;2023-03-24T06:35:03;99087.84;;;9.03;57.04
59272;BME280;45043;51.068;7.026;2023-03-24T06:38:25;99109.53;;;8.93;56.92
59272;BME280;45043;51.068;7.026;2023-03-24T06:41:25;99105.66;;;8.96;56.69
59272;BME280;45043;51.068;7.026;2023-03-24T06:44:30;99111.75;;;8.96;56.54
59272;BME280;45043;51.068;7.026;2023-03-24T06:47:30;99119.63;;;8.85;56.55
59272;BME280;45043;51.068;7.026;2023-03-24T06:50:31;99108.00;;;8.86;56.96
59272;BME280;45043;51.068;7.026;2023-03-24T06:53:38;99137.88;;;8.93;57.05
59272;BME280;45043;51.068;7.026;2023-03-24T06:56:40;99142.63;;;9.09;56.20
59272;BME280;45043;51.068;7.026;2023-03-24T06:59:42;99137.47;;;9.14;56.05
59272;BME280;45043;51.068;7.026;2023-03-24T07:02:42;99155.84;;;9.27;56.26
59272;BME280;45043;51.068;7.026;2023-03-24T07:05:44;99150.50;;;9.34;56.16
59272;BME280;45043;51.068;7.026;2023-03-24T07:08:44;99183.69;;;9.37;55.46
59272;BME280;45043;51.068;7.026;2023-03-24T07:11:46;99186.72;;;9.22;55.21
59272;BME280;45043;51.068;7.026;2023-03-24T07:14:48;99156.94;;;9.20;55.22
59272;BME280;45043;51.068;7.026;2023-03-24T07:17:48;99158.97;;;9.24;54.84
59272;BME280;45043;51.068;7.026;2023-03-24T07:21:18;99155.72;;;9.22;54.73
59272;BME280;45043;51.068;7.026;2023-03-24T07:24:22;99193.41;;;9.24;54.29
59272;BME280;45043;51.068;7.026;2023-03-24T07:27:34;99181.19;;;9.23;54.05
59272;BME280;45043;51.068;7.026;2023-03-24T07:30:38;99193.25;;;9.38;54.15
59272;BME280;45043;51.068;7.026;2023-03-24T07:33:38;99176.06;;;9.47;53.67
59272;BME280;45043;51.068;7.026;2023-03-24T07:36:41;99181.09;;;9.55;53.40
59272;BME280;45043;51.068;7.026;2023-03-24T07:39:47;99185.34;;;9.56;53.00
59272;BME280;45043;51.068;7.026;2023-03-24T07:42:48;99167.06;;;9.48;53.08
59272;BME280;45043;51.068;7.026;2023-03-24T07:46:03;99191.81;;;9.60;52.85
59272;BME280;45043;51.068;7.026;2023-03-24T07:49:06;99184.03;;;9.65;52.58
59272;BME280;45043;51.068;7.026;2023-03-24T07:52:07;99184.31;;;9.75;52.38
59272;BME280;45043;51.068;7.026;2023-03-24T07:55:17;99186.06;;;9.82;52.40
59272;BME280;45043;51.068;7.026;2023-03-24T07:58:31;99185.41;;;9.86;52.22
59272;BME280;45043;51.068;7.026;2023-03-24T08:01:39;99191.38;;;9.82;52.18
59272;BME280;45043;51.068;7.026;2023-03-24T08:04:43;99194.09;;;9.75;52.50
59272;BME280;45043;51.068;7.026;2023-03-24T08:07:59;99192.72;;;9.72;52.54
59272;BME280;45043;51.068;7.026;2023-03-24T08:11:00;99208.34;;;9.81;52.10
59272;BME280;45043;51.068;7.026;2023-03-24T08:14:01;99211.88;;;9.74;52.35
59272;BME280;45043;51.068;7.026;2023-03-24T08:17:01;99208.03;;;9.70;52.34
59272;BME280;45043;51.068;7.026;2023-03-24T08:20:03;99205.09;;;9.79;52.04
59272;BME280;45043;51.068;7.026;2023-03-24T08:23:07;99195.38;;;9.72;51.92
59272;BME280;45043;51.068;7.026;2023-03-24T08:26:07;99204.16;;;9.73;52.15
59272;BME280;45043;51.068;7.026;2023-03-24T08:29:09;99206.72;;;9.61;51.72
59272;BME280;45043;51.068;7.026;2023-03-24T08:32:10;99191.81;;;9.60;51.41
59272;BME280;45043;51.068;7.026;2023-03-24T08:35:12;99211.56;;;9.83;51.05
59272;BME280;45043;51.068;7.026;2023-03-24T08:38:13;99204.66;;;9.82;50.63
59272;BME280;45043;51.068;7.026;2023-03-24T08:41:15;99196.56;;;9.76;50.85
59272;BME280;45043;51.068;7.026;2023-03-24T08:44:16;99195.66;;;9.83;50.88
59272;BME280;45043;51.068;7.026;2023-03-24T08:47:16;99188.09;;;9.98;50.63
59272;BME280;45043;51.068;7.026;2023-03-24T08:50:19;99213.03;;;9.97;50.47
59272;BME280;45043;51.068;7.026;2023-03-24T08:53:21;99200.34;;;9.99;50.25
59272;BME280;45043;51.068;7.026;2023-03-24T08:56:21;99230.41;;;9.93;49.96
59272;BME280;45043;51.068;7.026;2023-03-24T08:59:22;99195.50;;;9.96;50.79
59272;BME280;45043;51.068;7.026;2023-03-24T09:02:22;99221.59;;;9.99;50.17
59272;BME280;45043;51.068;7.026;2023-03-24T09:05:23;99211.03;;;10.11;50.19
59272;BME280;45043;51.068;7.026;2023-03-24T09:08:24;99217.94;;;10.12;49.62
59272;BME280;45043;51.068;7.026;2023-03-24T09:11:25;99228.25;;;10.01;49.81
59272;BME280;45043;51.068;7.026;2023-03-24T09:14:26;99218.03;;;9.87;50.17
59272;BME280;45043;51.068;7.026;2023-03-24T09:17:26;99230.66;;;9.91;50.04
59272;BME280;45043;51.068;7.026;2023-03-24T09:20:27;99220.09;;;10.03;50.17
59272;BME280;45043;51.068;7.026;2023-03-24T09:23:27;99242.34;;;10.20;49.80
59272;BME280;45043;51.068;7.026;2023-03-24T09:26:30;99249.56;;;10.13;49.07
59272;BME280;45043;51.068;7.026;2023-03-24T09:29:33;99248.94;;;10.30;49.30
59272;BME280;45043;51.068;7.026;2023-03-24T09:32:33;99257.88;;;10.35;48.46
59272;BME280;45043;51.068;7.026;2023-03-24T09:35:34;99241.47;;;10.38;48.67
59272;BME280;45043;51.068;7.026;2023-03-24T09:38:34;99232.84;;;10.43;48.54
59272;BME280;45043;51.068;7.026;2023-03-24T09:41:35;99243.72;;;10.53;48.33
59272;BME280;45043;51.068;7.026;2023-03-24T09:44:39;99227.63;;;10.66;47.71
59272;BME280;45043;51.068;7.026;2023-03-24T09:51:02;99236.34;;;10.55;46.53
59272;BME280;45043;51.068;7.026;2023-03-24T09:57:46;99248.59;;;10.56;46.75
59272;BME280;45043;51.068;7.026;2023-03-24T10:00:45;99261.28;;;10.54;46.44
59272;BME280;45043;51.068;7.026;2023-03-24T10:03:46;99275.44;;;10.48;47.30
59272;BME280;45043;51.068;7.026;2023-03-24T10:06:47;99281.03;;;10.58;47.10
59272;BME280;45043;51.068;7.026;2023-03-24T10:09:56;99270.53;;;10.63;46.89
59272;BME280;45043;51.068;7.026;2023-03-24T10:13:06;99283.69;;;10.58;46.71
59272;BME280;45043;51.068;7.026;2023-03-24T10:16:17;99284.72;;;10.57;47.02
59272;BME280;45043;51.068;7.026;2023-03-24T10:19:44;99282.22;;;10.62;46.90
59272;BME280;45043;51.068;7.026;2023-03-24T10:29:43;99281.47;;;10.73;46.21
59272;BME280;45043;51.068;7.026;2023-03-24T10:32:45;99279.97;;;10.78;46.73
59272;BME280;45043;51.068;7.026;2023-03-24T10:36:08;99313.34;;;10.73;46.39
59272;BME280;45043;51.068;7.026;2023-03-24T10:39:14;99307.66;;;10.70;46.47
59272;BME280;45043;51.068;7.026;2023-03-24T10:42:18;99287.34;;;10.76;46.55
59272;BME280;45043;51.068;7.026;2023-03-24T10:45:32;99292.81;;;10.81;46.24
59272;BME280;45043;51.068;7.026;2023-03-24T10:51:33;99260.66;;;10.70;46.53
59272;BME280;45043;51.068;7.026;2023-03-24T10:54:34;99293.59;;;10.69;46.59
59272;BME280;45043;51.068;7.026;2023-03-24T10:57:36;99306.97;;;10.75;46.01
59272;BME280;45043;51.068;7.026;2023-03-24T11:00:37;99286.34;;;10.77;45.98
59272;BME280;45043;51.068;7.026;2023-03-24T11:03:38;99301.00;;;10.79;46.00
59272;BME280;45043;51.068;7.026;2023-03-24T11:06:53;99304.94;;;10.77;45.77
59272;BME280;45043;51.068;7.026;2023-03-24T11:09:59;99303.28;;;10.76;45.63
59272;BME280;45043;51.068;7.026;2023-03-24T11:13:01;99316.81;;;10.74;45.74
59272;BME280;45043;51.068;7.026;2023-03-24T11:19:19;99287.75;;;10.91;45.26
59272;BME280;45043;51.068;7.026;2023-03-24T11:22:20;99304.38;;;10.98;45.17
59272;BME280;45043;51.068;7.026;2023-03-24T11:25:25;99287.09;;;11.07;44.61
59272;BME280;45043;51.068;7.026;2023-03-24T11:28:26;99291.59;;;11.07;44.42
59272;BME280;45043;51.068;7.026;2023-03-24T11:31:30;99285.78;;;10.98;44.07
59272;BME280;45043;51.068;7.026;2023-03-24T11:34:34;99304.59;;;10.85;44.45
59272;BME280;45043;51.068;7.026;2023-03-24T11:37:41;99313.25;;;10.80;44.65
59272;BME280;45043;51.068;7.026;2023-03-24T11:40:54;99306.31;;;10.79;44.35
59272;BME280;45043;51.068;7.026;2023-03-24T11:44:14;99310.19;;;10.65;44.75
59272;BME280;45043;51.068;7.026;2023-03-24T11:47:28;99311.56;;;10.67;44.35
59272;BME280;45043;51.068;7.026;2023-03-24T11:50:32;99305.50;;;10.79;44.54
59272;BME280;45043;51.068;7.026;2023-03-24T11:53:43;99300.00;;;10.92;44.25
59272;BME280;45043;51.068;7.026;2023-03-24T11:56:47;99326.84;;;11.02;44.03
59272;BME280;45043;51.068;7.026;2023-03-24T11:59:52;99317.56;;;10.93;43.08
59272;BME280;45043;51.068;7.026;2023-03-24T12:06:44;99298.88;;;11.11;42.58
59272;BME280;45043;51.068;7.026;2023-03-24T12:13:16;99264.34;;;11.35;42.87
59272;BME280;45043;51.068;7.026;2023-03-24T12:16:45;99274.16;;;11.34;42.82
59272;BME280;45043;51.068;7.026;2023-03-24T12:20:20;99264.22;;;11.41;42.87
59272;BME280;45043;51.068;7.026;2023-03-24T12:26:45;99265.84;;;11.31;42.86
59272;BME280;45043;51.068;7.026;2023-03-24T12:29:52;99258.22;;;11.23;42.83
59272;BME280;45043;51.068;7.026;2023-03-24T12:36:49;99260.66;;;11.24;43.06
59272;BME280;45043;51.068;7.026;2023-03-24T12:40:10;99248.97;;;11.37;42.59
59272;BME280;45043;51.068;7.026;2023-03-24T12:43:35;99266.06;;;11.64;41.71
59272;BME280;45043;51.068;7.026;2023-03-24T12:47:22;99273.94;;;11.95;40.16
59272;BME280;45043;51.068;7.026;2023-03-24T12:50:52;99236.19;;;11.98;40.06
59272;BME280;45043;51.068;7.026;2023-03-24T12:57:31;99240.38;;;11.82;39.68
59272;BME280;45043;51.068;7.026;2023-03-24T13:00:39;99249.16;;;11.94;39.84
59272;BME280;45043;51.068;7.026;2023-03-24T13:03:47;99229.94;;;12.04;39.37
59272;BME280;45043;51.068;7.026;2023-03-24T13:13:20;99268.16;;;11.86;39.53
59272;BME280;45043;51.068;7.026;2023-03-24T13:16:23;99242.75;;;12.07;39.12
59272;BME280;45043;51.068;7.026;2023-03-24T13:19:27;99237.56;;;12.00;39.46
59272;BME280;45043;51.068;7.026;2023-03-24T13:22:29;99252.66;;;11.83;38.78
59272;BME280;45043;51.068;7.026;2023-03-24T13:32:47;99260.31;;;12.20;37.47
59272;BME280;45043;51.068;7.026;2023-03-24T13:36:21;99242.19;;;12.33;36.86
59272;BME280;45043;51.068;7.026;2023-03-24T13:39:27;99240.16;;;12.24;37.46
59272;BME280;45043;51.068;7.026;2023-03-24T13:42:35;99229.41;;;12.18;37.28
59272;BME280;45043;51.068;7.026;2023-03-24T13:45:49;99205.38;;;12.13;37.38
59272;BME280;45043;51.068;7.026;2023-03-24T13:48:53;99229.88;;;12.15;36.73
59272;BME280;45043;51.068;7.026;2023-03-24T13:51:55;99226.22;;;12.33;36.55
59272;BME280;45043;51.068;7.026;2023-03-24T13:54:58;99211.72;;;12.41;36.23
59272;BME280;45043;51.068;7.026;2023-03-24T13:58:03;99227.28;;;12.32;36.55
59272;BME280;45043;51.068;7.026;2023-03-24T14:07:42;99195.63;;;11.79;36.63
59272;BME280;45043;51.068;7.026;2023-03-24T14:10:46;99237.81;;;11.99;36.65
59272;BME280;45043;51.068;7.026;2023-03-24T14:13:46;99191.56;;;11.88;36.50
59272;BME280;45043;51.068;7.026;2023-03-24T14:29:36;99240.38;;;10.88;44.91
59272;BME280;45043;51.068;7.026;2023-03-24T14:32:39;99244.56;;;11.31;43.92
59272;BME280;45043;51.068;7.026;2023-03-24T14:35:44;99241.34;;;11.17;42.96
59272;BME280;45043;51.068;7.026;2023-03-24T14:38:45;99241.91;;;10.95;44.31
59272;BME280;45043;51.068;7.026;2023-03-24T14:41:46;99272.28;;;10.88;44.63
59272;BME280;45043;51.068;7.026;2023-03-24T14:44:52;99276.50;;;10.77;44.39
59272;BME280;45043;51.068;7.026;2023-03-24T14:47:59;99252.00;;;10.75;44.00
59272;BME280;45043;51.068;7.026;2023-03-24T14:51:17;99241.28;;;10.82;43.23
59272;BME280;45043;51.068;7.026;2023-03-24T14:54:33;99224.56;;;10.93;43.49
59272;BME280;45043;51.068;7.026;2023-03-24T14:57:39;99234.28;;;11.46;41.83
59272;BME280;45043;51.068;7.026;2023-03-24T15:00:48;99231.31;;;12.35;40.75
59272;BME280;45043;51.068;7.026;2023-03-24T15:04:00;99212.03;;;13.07;38.28
59272;BME280;45043;51.068;7.026;2023-03-24T15:07:04;99210.13;;;13.41;38.18
59272;BME280;45043;51.068;7.026;2023-03-24T15:10:06;99200.16;;;13.97;36.76
59272;BME280;45043;51.068;7.026;2023-03-24T15:13:31;99233.69;;;14.32;34.94
59272;BME280;45043;51.068;7.026;2023-03-24T15:16:35;99261.25;;;14.38;34.80
59272;BME280;45043;51.068;7.026;2023-03-24T15:19:37;99257.84;;;13.98;35.34
59272;BME280;45043;51.068;7.026;2023-03-24T15:22:40;99239.81;;;15.19;33.37
59272;BME280;45043;51.068;7.026;2023-03-24T15:25:41;99217.09;;;16.57;31.33
59272;BME280;45043;51.068;7.026;2023-03-24T15:28:42;99222.03;;;17.86;30.11
59272;BME280;45043;51.068;7.026;2023-03-24T15:31:43;99247.53;;;18.49;28.90
59272;BME280;45043;51.068;7.026;2023-03-24T15:34:54;99221.16;;;17.11;29.89
59272;BME280;45043;51.068;7.026;2023-03-24T15:37:55;99195.41;;;16.43;31.21
59272;BME280;45043;51.068;7.026;2023-03-24T15:44:06;99204.56;;;14.08;34.77
59272;BME280;45043;51.068;7.026;2023-03-24T15:47:26;99193.25;;;13.57;35.94
59272;BME280;45043;51.068;7.026;2023-03-24T15:50:35;99179.84;;;13.52;36.22
59272;BME280;45043;51.068;7.026;2023-03-24T15:56:41;99172.59;;;12.13;38.68
59272;BME280;45043;51.068;7.026;2023-03-24T16:03:00;99177.94;;;11.61;40.68
59272;BME280;45043;51.068;7.026;2023-03-24T16:06:01;99169.53;;;11.40;41.52
59272;BME280;45043;51.068;7.026;2023-03-24T16:09:21;99179.63;;;11.15;42.10
59272;BME280;45043;51.068;7.026;2023-03-24T16:12:26;99254.50;;;11.00;43.18
59272;BME280;45043;51.068;7.026;2023-03-24T16:15:26;99272.47;;;10.56;47.98
59272;BME280;45043;51.068;7.026;2023-03-24T16:18:32;99238.38;;;9.74;51.28
59272;BME280;45043;51.068;7.026;2023-03-24T16:21:33;99265.00;;;9.18;53.15
59272;BME280;45043;51.068;7.026;2023-03-24T16:24:33;99251.19;;;8.91;54.72
59272;BME280;45043;51.068;7.026;2023-03-24T16:27:34;99281.84;;;8.73;55.34
59272;BME280;45043;51.068;7.026;2023-03-24T16:30:37;99273.19;;;8.53;56.26
59272;BME280;45043;51.068;7.026;2023-03-24T16:33:39;99284.69;;;8.40;56.84
59272;BME280;45043;51.068;7.026;2023-03-24T16:36:39;99266.38;;;8.39;57.33
59272;BME280;45043;51.068;7.026;2023-03-24T16:39:40;99253.56;;;8.36;57.71
59272;BME280;45043;51.068;7.026;2023-03-24T16:42:41;99267.38;;;8.38;58.28
59272;BME280;45043;51.068;7.026;2023-03-24T16:45:41;99283.06;;;8.39;58.22
59272;BME280;45043;51.068;7.026;2023-03-24T16:48:43;99331.31;;;8.35;58.41
59272;BME280;45043;51.068;7.026;2023-03-24T16:51:44;99331.34;;;8.15;58.47
59272;BME280;45043;51.068;7.026;2023-03-24T16:54:45;99289.81;;;8.22;58.85
59272;BME280;45043;51.068;7.026;2023-03-24T16:57:45;99276.75;;;9.28;57.41
59272;BME280;45043;51.068;7.026;2023-03-24T17:00:46;99282.91;;;9.72;55.17
59272;BME280;45043;51.068;7.026;2023-03-24T17:03:48;99286.06;;;10.66;53.75
59272;BME280;45043;51.068;7.026;2023-03-24T17:06:50;99291.53;;;11.84;51.74
59272;BME280;45043;51.068;7.026;2023-03-24T17:09:54;99281.50;;;12.72;50.31
59272;BME280;45043;51.068;7.026;2023-03-24T17:12:55;99275.28;;;13.45;48.43
59272;BME280;45043;51.068;7.026;2023-03-24T17:15:55;99295.66;;;13.51;47.19
59272;BME280;45043;51.068;7.026;2023-03-24T17:18:56;99293.53;;;13.20;47.92
59272;BME280;45043;51.068;7.026;2023-03-24T17:22:00;99284.09;;;13.29;46.73
59272;BME280;45043;51.068;7.026;2023-03-24T17:25:02;99282.56;;;12.99;47.37
59272;BME280;45043;51.068;7.026;2023-03-24T17:28:08;99275.78;;;12.34;47.53
59272;BME280;45043;51.068;7.026;2023-03-24T17:31:11;99280.88;;;11.60;48.30
59272;BME280;45043;51.068;7.026;2023-03-24T17:34:12;99282.69;;;11.01;49.37
59272;BME280;45043;51.068;7.026;2023-03-24T17:37:13;99269.41;;;10.41;49.83
59272;BME280;45043;51.068;7.026;2023-03-24T17:40:16;99277.88;;;10.01;50.64
59272;BME280;45043;51.068;7.026;2023-03-24T17:43:17;99267.09;;;9.59;52.04
59272;BME280;45043;51.068;7.026;2023-03-24T17:46:17;99282.16;;;9.40;52.88
59272;BME280;45043;51.068;7.026;2023-03-24T17:49:18;99284.91;;;9.27;53.67
59272;BME280;45043;51.068;7.026;2023-03-24T17:52:19;99283.41;;;9.13;53.88
59272;BME280;45043;51.068;7.026;2023-03-24T17:55:20;99281.69;;;8.93;54.16
59272;BME280;45043;51.068;7.026;2023-03-24T17:58:22;99283.19;;;8.83;54.54
59272;BME280;45043;51.068;7.026;2023-03-24T18:01:22;99287.56;;;8.70;54.00
59272;BME280;45043;51.068;7.026;2023-03-24T18:04:23;99277.50;;;8.54;54.41
59272;BME280;45043;51.068;7.026;2023-03-24T18:07:24;99280.81;;;8.43;54.75
59272;BME280;45043;51.068;7.026;2023-03-24T18:10:25;99279.25;;;8.28;54.91
59272;BME280;45043;51.068;7.026;2023-03-24T18:13:25;99281.47;;;8.18;55.41
59272;BME280;45043;51.068;7.026;2023-03-24T18:16:28;99286.59;;;8.13;55.65
59272;BME280;45043;51.068;7.026;2023-03-24T18:19:34;99289.03;;;8.08;55.84
59272;BME280;45043;51.068;7.026;2023-03-24T18:22:36;99292.31;;;8.03;55.64
59272;BME280;45043;51.068;7.026;2023-03-24T18:25:39;99285.03;;;7.92;56.26
59272;BME280;45043;51.068;7.026;2023-03-24T18:28:41;99285.44;;;7.89;56.50
59272;BME280;45043;51.068;7.026;2023-03-24T18:31:42;99276.94;;;7.87;56.75
59272;BME280;45043;51.068;7.026;2023-03-24T18:34:42;99284.66;;;7.75;57.06
59272;BME280;45043;51.068;7.026;2023-03-24T18:37:44;99283.66;;;7.70;56.95
59272;BME280;45043;51.068;7.026;2023-03-24T18:40:44;99281.25;;;7.68;56.94